Time;durP1;ratioP1;P1;durP2;ratioP2;P2;SDS_P1;SDS_P2;PMS_P1;PMS_P2;Temp;Humidity;BMP_temperature;BMP_pressure;BME280_temperature;BME280_humidity;BME280_pressure;Samples;Min_cycle;Max_cycle;Signal;HPM_P1;HPM_P2
2022/12/16 00:01:10;;;;;;;1.83;1.20;;;3.20;99.60;;;;;;5077105;28;20553;-69
2022/12/16 00:03:36;;;;;;;0.77;0.77;;;3.20;99.70;;;;;;5077604;28;20208;-68
2022/12/16 00:06:03;;;;;;;0.40;0.40;;;3.30;99.70;;;;;;5076675;28;20193;-70
2022/12/16 00:08:32;;;;;;;0.40;0.40;;;3.30;99.50;;;;;;5076594;28;20264;-68
2022/12/16 00:10:59;;;;;;;1.65;1.55;;;3.30;99.50;;;;;;5076509;28;20173;-68
2022/12/16 00:13:24;;;;;;;0.40;0.40;;;3.40;99.50;;;;;;5077007;28;20196;-69
2022/12/16 00:15:50;;;;;;;0.40;0.40;;;3.40;99.50;;;;;;5076570;28;20169;-70
2022/12/16 00:18:18;;;;;;;1.43;1.33;;;3.50;99.60;;;;;;5075506;28;20197;-69
2022/12/16 00:20:48;;;;;;;0.52;0.52;;;3.40;99.30;;;;;;5076947;28;20497;-70
2022/12/16 00:23:15;;;;;;;0.32;0.32;;;3.40;99.30;;;;;;5076997;28;20683;-70
2022/12/16 00:25:44;;;;;;;0.30;0.30;;;3.50;99.20;;;;;;5076515;28;20207;-70
2022/12/16 00:28:11;;;;;;;1.02;1.02;;;3.50;99.30;;;;;;5076963;28;20193;-69
2022/12/16 00:30:37;;;;;;;0.38;0.38;;;3.60;99.30;;;;;;5076488;28;20173;-70
2022/12/16 00:33:04;;;;;;;0.40;0.40;;;3.50;99.10;;;;;;5076729;28;20176;-69
2022/12/16 00:35:30;;;;;;;1.50;1.40;;;3.50;99.20;;;;;;5076573;28;20172;-69
2022/12/16 00:37:56;;;;;;;0.60;0.60;;;3.50;99.20;;;;;;5075595;28;20181;-69
2022/12/16 00:40:22;;;;;;;0.30;0.30;;;3.50;99.20;;;;;;5075694;28;20415;-70
2022/12/16 00:42:47;;;;;;;0.70;0.70;;;3.50;99.00;;;;;;5075787;28;20247;-69
2022/12/16 00:45:13;;;;;;;0.60;0.50;;;3.50;98.90;;;;;;5074927;28;20169;-70
2022/12/16 00:47:39;;;;;;;0.67;0.67;;;3.50;98.90;;;;;;5075011;28;20561;-68
2022/12/16 00:50:05;;;;;;;0.40;0.40;;;3.50;98.90;;;;;;5073647;28;20469;-70
2022/12/16 00:52:31;;;;;;;1.25;1.25;;;3.60;99.00;;;;;;5075171;28;20172;-70
2022/12/16 00:54:56;;;;;;;0.40;0.40;;;3.60;98.90;;;;;;5074630;28;20222;-68
2022/12/16 00:57:22;;;;;;;0.40;0.40;;;3.60;98.90;;;;;;5074876;28;20173;-70
2022/12/16 00:59:48;;;;;;;0.50;0.50;;;3.60;98.90;;;;;;5074795;28;20189;-70
2022/12/16 01:02:13;;;;;;;0.77;0.67;;;3.60;99.00;;;;;;5075024;28;20509;-69
2022/12/16 01:04:39;;;;;;;0.57;0.57;;;3.60;98.70;;;;;;5074850;28;20176;-68
2022/12/16 01:07:05;;;;;;;0.53;0.53;;;3.60;98.70;;;;;;5075114;28;20208;-70
2022/12/16 01:09:30;;;;;;;0.83;0.83;;;3.60;98.90;;;;;;5074649;28;20180;-69
2022/12/16 01:11:56;;;;;;;0.30;0.30;;;3.60;98.90;;;;;;5075283;28;20170;-68
2022/12/16 01:14:22;;;;;;;0.40;0.40;;;3.50;98.70;;;;;;5075068;28;20175;-70
2022/12/16 01:16:47;;;;;;;0.40;0.40;;;3.40;98.90;;;;;;5074923;28;20177;-70
2022/12/16 01:19:13;;;;;;;0.50;0.50;;;3.40;99.10;;;;;;5073550;28;20201;-70
2022/12/16 01:21:39;;;;;;;0.30;0.30;;;3.40;99.20;;;;;;5074923;28;20510;-70
2022/12/16 01:24:05;;;;;;;0.43;0.43;;;3.40;99.30;;;;;;5074855;28;20169;-69
2022/12/16 01:26:31;;;;;;;1.17;1.17;;;3.50;99.30;;;;;;5074996;28;20204;-70
2022/12/16 01:28:57;;;;;;;0.50;0.50;;;3.40;99.10;;;;;;5074308;28;20601;-69
2022/12/16 01:31:23;;;;;;;0.40;0.40;;;3.30;99.10;;;;;;5074428;28;20165;-69
2022/12/16 01:33:49;;;;;;;5.43;2.33;;;3.30;99.10;;;;;;5074581;28;20201;-67
2022/12/16 01:36:15;;;;;;;0.40;0.40;;;3.40;99.00;;;;;;5034472;28;1133759;-68
2022/12/16 01:38:45;;;;;;;0.30;0.30;;;3.30;98.90;;;;;;5075437;28;20438;-68
2022/12/16 01:41:13;;;;;;;0.40;0.40;;;3.20;99.00;;;;;;5075877;28;20182;-68
2022/12/16 01:43:42;;;;;;;0.55;0.55;;;3.20;99.00;;;;;;5075098;28;20176;-70
2022/12/16 01:46:11;;;;;;;1.02;1.02;;;3.20;99.10;;;;;;5074886;28;20203;-69
2022/12/16 01:48:51;;;;;;;0.40;0.40;;;3.20;99.10;;;;;;5075359;28;20186;-69
2022/12/16 01:51:20;;;;;;;0.40;0.40;;;3.10;99.50;;;;;;5075607;28;20169;-70
2022/12/16 01:53:49;;;;;;;1.20;1.17;;;3.20;99.30;;;;;;5075304;28;20243;-69
2022/12/16 01:56:16;;;;;;;0.40;0.40;;;3.10;99.20;;;;;;5074858;28;20173;-70
2022/12/16 01:58:44;;;;;;;3.03;2.15;;;3.10;99.20;;;;;;5074722;28;20202;-70
2022/12/16 02:01:10;;;;;;;0.60;0.60;;;2.90;99.00;;;;;;5075105;28;20180;-69
2022/12/16 02:03:36;;;;;;;0.50;0.50;;;2.60;99.30;;;;;;5075228;28;20519;-70
2022/12/16 02:06:04;;;;;;;2.60;0.70;;;2.50;99.80;;;;;;5074146;28;20497;-70
2022/12/16 02:08:29;;;;;;;0.60;0.50;;;2.50;99.90;;;;;;5074653;28;20239;-68
2022/12/16 02:11:36;;;;;;;0.50;0.50;;;2.60;99.90;;;;;;5074574;28;20169;-70
2022/12/16 02:14:24;;;;;;;0.98;0.77;;;2.80;99.90;;;;;;5074321;28;20181;-69
2022/12/16 02:16:59;;;;;;;0.85;0.80;;;3.00;99.90;;;;;;5074534;28;20218;-70
2022/12/16 02:20:02;;;;;;;0.40;0.40;;;3.10;99.50;;;;;;5074331;28;20184;-68
2022/12/16 02:22:37;;;;;;;0.40;0.40;;;3.10;99.50;;;;;;5074515;28;20173;-70
2022/12/16 02:25:35;;;;;;;0.40;0.40;;;3.10;99.50;;;;;;5074579;28;20173;-70
2022/12/16 02:28:38;;;;;;;0.65;0.60;;;3.10;99.60;;;;;;5074434;28;20216;-69
2022/12/16 02:31:16;;;;;;;1.85;0.77;;;3.00;99.20;;;;;;5074445;28;20169;-70
2022/12/16 02:34:11;;;;;;;1.48;1.13;;;3.00;99.50;;;;;;5074511;28;20222;-69
2022/12/16 02:36:39;;;;;;;0.77;0.77;;;2.90;99.50;;;;;;5074126;28;20189;-68
2022/12/16 02:39:17;;;;;;;1.45;0.77;;;3.00;99.60;;;;;;5074507;28;20658;-70
2022/12/16 02:41:45;;;;;;;0.70;0.70;;;3.00;99.60;;;;;;5074166;28;20161;-69
2022/12/16 02:44:12;;;;;;;0.75;0.75;;;3.00;99.40;;;;;;5073929;28;20172;-69
2022/12/16 02:46:41;;;;;;;0.73;0.73;;;3.10;99.30;;;;;;5074111;28;20212;-69
2022/12/16 02:49:13;;;;;;;0.70;0.70;;;3.10;99.10;;;;;;5073824;28;20182;-69
2022/12/16 02:51:39;;;;;;;0.75;0.75;;;3.10;98.80;;;;;;5074515;28;20193;-70
2022/12/16 02:54:08;;;;;;;0.50;0.50;;;3.10;98.80;;;;;;5074298;28;20227;-70
2022/12/16 02:56:51;;;;;;;1.45;1.45;;;2.90;98.80;;;;;;5073746;28;20761;-70
2022/12/16 02:59:17;;;;;;;1.45;1.35;;;2.80;98.90;;;;;;5073718;28;20272;-69
2022/12/16 03:01:55;;;;;;;0.60;0.60;;;2.70;99.00;;;;;;5073686;28;20173;-70
2022/12/16 03:04:35;;;;;;;2.60;2.40;;;2.60;99.20;;;;;;5074149;28;20174;-70
2022/12/16 03:07:03;;;;;;;1.38;1.30;;;2.50;99.30;;;;;;5074165;28;20204;-69
2022/12/16 03:09:32;;;;;;;0.93;0.90;;;2.60;99.40;;;;;;5073898;28;20533;-69
2022/12/16 03:12:01;;;;;;;1.58;0.63;;;2.70;99.40;;;;;;5073982;28;20222;-70
2022/12/16 03:14:33;;;;;;;2.38;1.67;;;2.70;99.30;;;;;;5073813;28;20227;-70
2022/12/16 03:16:59;;;;;;;1.05;1.05;;;2.80;99.10;;;;;;5074277;28;20169;-69
2022/12/16 03:19:26;;;;;;;2.35;2.25;;;2.70;99.00;;;;;;5073380;28;20193;-70
2022/12/16 03:22:01;;;;;;;0.85;0.85;;;2.80;98.90;;;;;;5073683;28;20256;-70
2022/12/16 03:24:28;;;;;;;0.40;0.40;;;2.70;98.60;;;;;;5073750;28;20176;-68
2022/12/16 03:27:31;;;;;;;1.98;1.25;;;2.40;98.50;;;;;;5073852;28;20257;-69
2022/12/16 03:30:12;;;;;;;1.05;0.50;;;2.20;98.70;;;;;;5072268;28;20650;-69
2022/12/16 03:32:47;;;;;;;1.50;0.75;;;2.10;98.80;;;;;;5073754;28;20628;-69
2022/12/16 03:35:41;;;;;;;2.35;2.25;;;2.10;98.80;;;;;;5073318;28;20183;-69
2022/12/16 03:38:09;;;;;;;4.10;1.58;;;2.10;98.80;;;;;;5073456;28;20254;-70
2022/12/16 03:40:37;;;;;;;0.40;0.40;;;2.10;98.70;;;;;;5073323;28;20706;-69
2022/12/16 03:43:05;;;;;;;4.18;2.67;;;2.00;98.80;;;;;;5073247;28;20174;-70
2022/12/16 03:45:44;;;;;;;2.60;2.50;;;2.00;98.90;;;;;;5073171;28;20192;-70
2022/12/16 03:48:12;;;;;;;0.30;0.30;;;2.00;98.80;;;;;;5073670;28;20196;-68
2022/12/16 03:50:38;;;;;;;0.30;0.30;;;1.80;98.70;;;;;;5073310;28;20187;-69
2022/12/16 03:53:05;;;;;;;0.40;0.40;;;1.80;98.80;;;;;;5073197;28;20242;-70
2022/12/16 03:55:31;;;;;;;1.35;1.35;;;1.70;98.80;;;;;;5073325;28;20178;-69
2022/12/16 03:57:57;;;;;;;0.50;0.50;;;1.60;99.00;;;;;;5072895;28;20176;-70
2022/12/16 04:00:23;;;;;;;1.40;1.30;;;1.70;99.20;;;;;;5073642;28;20643;-69
2022/12/16 04:02:48;;;;;;;1.83;1.73;;;1.90;99.20;;;;;;5073725;28;20180;-68
2022/12/16 04:05:14;;;;;;;0.50;0.50;;;2.00;99.10;;;;;;5072978;28;20508;-68
2022/12/16 04:07:40;;;;;;;2.83;0.73;;;2.10;99.00;;;;;;5073123;28;20204;-69
2022/12/16 04:10:07;;;;;;;1.80;1.67;;;2.10;98.80;;;;;;5071771;28;20414;-70
2022/12/16 04:26:19;;;;;;;4.13;1.08;;;1.70;97.80;;;;;;5072945;28;20232;-67
2022/12/16 04:28:45;;;;;;;3.67;3.58;;;1.50;98.00;;;;;;5073247;28;20536;-68
2022/12/16 04:31:10;;;;;;;0.60;0.60;;;1.50;98.20;;;;;;5076085;28;20175;-68
